Leggett, California
Current Conditions -  °F | °C
As of 1:35 AM on Friday 28 Nov 2014 (Local Time) from KFOT Reporting Station
Clear Clear  
Wind Chill: 57°   Ceiling: Unl
Heat Index: 57°   Visibility: 10mi
Dew Point: 48°   Wind: 14mph
Humidity: 72%   Direction: 140°SE
Pressure: 29.94"   Gusts: 26mph
Location:  39.87°N, 123.72°W
Report Text: KFOT 280935Z AUTO 14012G23KT 10SM CLR 14/09 A2994 RMK AO1
Loading
Personal Weather Stations






























Interactive Weather Map New forecast layout! Learn more

10-Day Weather Forecast

Advertisements
Track Severe Weather on mobile